Time;durP1;ratioP1;P1;durP2;ratioP2;P2;SDS_P1;SDS_P2;PMS_P1;PMS_P2;Temp;Humidity;BMP_temperature;BMP_pressure;BME280_temperature;BME280_humidity;BME280_pressure;Samples;Min_cycle;Max_cycle;Signal;HPM_P1;HPM_P2
2021/03/05 00:00:43;;;;;;;6.40;1.70;;;;;;;2.76;56.49;102211.88;6187089;28;20238;-55
2021/03/05 00:04:03;;;;;;;3.80;2.27;;;;;;;2.78;56.56;102210.25;6203332;28;20533;-57
2021/03/05 00:07:24;;;;;;;3.70;1.40;;;;;;;2.87;55.88;102214.91;6190693;28;20234;-57
2021/03/05 00:10:46;;;;;;;3.37;1.30;;;;;;;2.59;57.50;102223.09;6206516;28;20225;-56
2021/03/05 00:14:06;;;;;;;4.83;1.80;;;;;;;2.61;57.29;102222.34;6194234;28;20480;-54
2021/03/05 00:17:28;;;;;;;2.57;1.37;;;;;;;2.66;57.21;102236.31;6205886;28;20237;-57
2021/03/05 00:20:50;;;;;;;3.07;1.57;;;;;;;2.76;57.53;102237.59;6195587;28;20267;-56
2021/03/05 00:24:11;;;;;;;2.87;1.77;;;;;;;2.52;57.31;102238.25;6201434;28;20229;-55
2021/03/05 00:27:32;;;;;;;5.10;1.77;;;;;;;2.63;57.96;102235.28;6191856;28;20336;-58
2021/03/05 00:30:52;;;;;;;4.70;1.53;;;;;;;2.63;57.30;102245.56;6194667;28;20233;-54
2021/03/05 00:34:13;;;;;;;3.90;1.33;;;;;;;2.66;57.84;102250.88;6216698;28;20233;-56
2021/03/05 00:37:34;;;;;;;4.63;1.73;;;;;;;2.63;57.86;102245.56;6208019;28;20229;-57
2021/03/05 00:40:55;;;;;;;4.70;1.80;;;;;;;2.64;57.79;102247.34;6207095;28;20244;-57
2021/03/05 00:44:16;;;;;;;4.13;1.60;;;;;;;2.42;57.99;102255.72;6210804;28;20399;-58
2021/03/05 00:47:36;;;;;;;4.53;1.67;;;;;;;2.54;58.02;102254.63;6213348;28;20237;-53
2021/03/05 00:50:58;;;;;;;2.57;1.10;;;;;;;2.42;58.54;102256.59;6203102;28;20230;-57
2021/03/05 00:54:19;;;;;;;2.53;1.10;;;;;;;2.48;57.96;102262.06;6224118;28;20532;-56
2021/03/05 00:57:41;;;;;;;3.07;1.17;;;;;;;2.48;58.09;102267.22;6197244;28;20241;-51
2021/03/05 01:01:02;;;;;;;5.10;1.70;;;;;;;2.34;57.82;102273.38;6189831;28;20240;-54
2021/03/05 01:04:23;;;;;;;2.30;1.30;;;;;;;2.21;58.08;102281.28;6200952;28;20233;-56
2021/03/05 01:07:48;;;;;;;5.70;1.87;;;;;;;2.45;57.60;102282.47;6188494;28;20272;-55
2021/03/05 01:11:16;;;;;;;2.47;1.50;;;;;;;2.07;59.10;102281.50;6212309;28;20567;-57
2021/03/05 01:14:37;;;;;;;5.87;1.93;;;;;;;2.12;58.22;102287.75;6210521;28;20319;-59
2021/03/05 01:17:58;;;;;;;4.30;1.80;;;;;;;2.23;58.07;102290.84;6212990;28;20631;-57
2021/03/05 01:21:18;;;;;;;2.93;1.60;;;;;;;2.22;58.22;102289.09;6214887;28;20249;-55
2021/03/05 01:24:40;;;;;;;6.30;2.63;;;;;;;2.20;57.94;102284.69;6213709;28;20606;-57
2021/03/05 01:28:01;;;;;;;1.83;1.40;;;;;;;2.17;58.33;102281.16;6214568;28;20221;-58
2021/03/05 01:31:21;;;;;;;3.53;1.47;;;;;;;2.11;58.90;102291.16;6209868;28;20932;-57
2021/03/05 01:34:41;;;;;;;3.90;1.53;;;;;;;2.01;58.81;102290.59;6211560;28;20237;-58
2021/03/05 01:38:02;;;;;;;5.30;3.00;;;;;;;2.12;58.20;102300.59;6211310;28;20672;-57
2021/03/05 01:41:23;;;;;;;4.03;1.83;;;;;;;1.88;59.59;102296.81;6200812;28;20229;-54
2021/03/05 01:44:44;;;;;;;7.17;2.07;;;;;;;2.11;58.54;102304.00;6194270;28;20230;-56
2021/03/05 01:48:08;;;;;;;3.00;1.80;;;;;;;2.21;58.27;102302.75;6188014;28;20610;-58
2021/03/05 01:51:31;;;;;;;3.73;2.07;;;;;;;2.21;58.34;102299.28;6186916;28;20225;-59
2021/03/05 01:54:52;;;;;;;3.47;2.00;;;;;;;2.10;58.45;102303.91;6216280;28;20225;-57
2021/03/05 01:58:13;;;;;;;3.00;2.17;;;;;;;2.16;58.11;102301.63;6212573;28;20233;-57
2021/03/05 02:01:35;;;;;;;3.40;2.00;;;;;;;2.08;59.38;102305.53;6202362;28;20624;-55
2021/03/05 02:04:55;;;;;;;2.37;1.30;;;;;;;2.04;59.51;102304.50;6208557;28;20631;-58
2021/03/05 02:08:16;;;;;;;3.47;2.13;;;;;;;2.15;58.28;102310.16;6222359;28;20229;-56
2021/03/05 02:11:37;;;;;;;5.90;1.73;;;;;;;2.13;58.53;102309.19;6201799;28;20245;-59
2021/03/05 02:14:58;;;;;;;3.30;2.40;;;;;;;2.02;59.16;102306.09;6217330;28;20225;-57
2021/03/05 02:18:26;;;;;;;6.57;2.43;;;;;;;2.15;58.16;102308.47;6218114;28;20233;-55
2021/03/05 02:22:12;;;;;;;4.60;1.93;;;;;;;1.89;59.28;102319.13;6187872;28;20240;-56
2021/03/05 02:25:58;;;;;;;4.77;2.13;;;;;;;1.89;59.25;102324.28;6193953;28;20238;-55
2021/03/05 02:29:56;;;;;;;2.73;1.87;;;;;;;1.80;59.59;102328.94;6211811;28;20225;-58
2021/03/05 02:33:23;;;;;;;3.40;1.70;;;;;;;1.91;59.22;102332.94;6186149;28;20237;-58
2021/03/05 02:36:49;;;;;;;4.00;2.60;;;;;;;2.07;58.90;102339.72;6186974;28;20784;-58
2021/03/05 02:40:17;;;;;;;4.57;2.13;;;;;;;2.01;58.35;102340.31;6194107;28;20238;-58
2021/03/05 02:43:38;;;;;;;4.27;1.70;;;;;;;1.81;59.61;102338.44;6181142;28;20608;-55
2021/03/05 02:47:01;;;;;;;1.60;1.30;;;;;;;1.99;59.04;102335.91;6190468;28;20230;-56
2021/03/05 02:50:26;;;;;;;5.33;2.70;;;;;;;2.04;58.52;102339.59;6216759;28;20225;-59
2021/03/05 02:53:51;;;;;;;3.93;2.20;;;;;;;2.12;58.34;102343.41;6200286;28;20524;-57
2021/03/05 02:57:16;;;;;;;3.30;1.30;;;;;;;2.11;58.35;102352.84;6202616;28;20233;-55
2021/03/05 03:00:37;;;;;;;4.67;2.10;;;;;;;2.10;58.35;102342.47;6210030;28;20241;-56
2021/03/05 03:04:02;;;;;;;3.37;1.93;;;;;;;2.01;58.58;102345.44;6209190;28;20265;-55
2021/03/05 03:07:24;;;;;;;4.13;2.37;;;;;;;1.98;58.67;102347.88;6199434;28;20229;-58
2021/03/05 03:10:47;;;;;;;2.93;1.80;;;;;;;2.09;58.29;102356.97;6208225;28;20229;-56
2021/03/05 03:14:08;;;;;;;5.40;2.00;;;;;;;2.20;58.02;102356.66;6200130;28;20241;-57
2021/03/05 03:17:28;;;;;;;5.47;1.80;;;;;;;2.12;58.47;102362.28;6196122;28;20595;-57
2021/03/05 03:20:49;;;;;;;3.87;1.73;;;;;;;2.15;57.68;102359.88;6194111;28;20233;-57
2021/03/05 03:24:11;;;;;;;8.03;2.97;;;;;;;1.97;58.40;102361.50;6189530;28;20234;-58
2021/03/05 03:27:32;;;;;;;5.33;2.23;;;;;;;1.96;59.08;102359.75;6206547;28;20642;-57
2021/03/05 03:30:52;;;;;;;3.53;2.07;;;;;;;2.04;58.38;102360.16;6200286;28;20229;-57
2021/03/05 03:34:14;;;;;;;4.60;1.80;;;;;;;2.03;58.62;102364.38;6191103;28;20234;-57
2021/03/05 03:37:35;;;;;;;34.27;24.43;;;;;;;2.22;60.54;102365.31;6196851;28;20572;-56
2021/03/05 03:40:58;;;;;;;34.50;24.43;;;;;;;2.39;59.56;102367.03;6190882;28;20257;-56
2021/03/05 03:44:18;;;;;;;30.00;20.87;;;;;;;2.27;59.53;102377.59;6210315;28;20521;-57
2021/03/05 03:47:40;;;;;;;23.13;17.47;;;;;;;2.29;58.91;102387.97;6211753;28;20237;-57
2021/03/05 04:13:56;;;;;;;6.33;2.63;;;;;;;1.89;58.67;102406.50;6200587;28;20312;-57
2021/03/05 04:17:17;;;;;;;4.80;2.47;;;;;;;1.82;59.10;102417.25;6201194;28;20267;-58
2021/03/05 04:20:39;;;;;;;5.83;2.70;;;;;;;1.87;59.33;102410.66;6206902;28;20639;-58
2021/03/05 04:24:00;;;;;;;5.03;2.30;;;;;;;1.84;59.14;102410.50;6209124;28;20217;-58
2021/03/05 04:27:20;;;;;;;5.67;3.40;;;;;;;1.85;58.92;102417.41;6184080;28;20337;-57
2021/03/05 04:30:42;;;;;;;7.23;2.90;;;;;;;1.71;58.80;102417.56;6194881;28;20233;-56
2021/03/05 04:34:02;;;;;;;4.87;2.83;;;;;;;1.73;59.60;102427.94;6194824;28;20237;-57
2021/03/05 04:37:23;;;;;;;6.00;2.20;;;;;;;1.66;59.77;102430.97;6188029;28;20813;-57
2021/03/05 04:40:43;;;;;;;2.97;2.20;;;;;;;1.58;60.31;102440.84;6191646;28;20571;-58
2021/03/05 04:44:04;;;;;;;5.83;4.07;;;;;;;1.61;60.07;102435.88;6208311;28;20309;-56
2021/03/05 04:47:26;;;;;;;9.40;2.60;;;;;;;1.46;60.51;102440.19;6191207;28;20233;-57
2021/03/05 04:50:46;;;;;;;3.43;2.23;;;;;;;1.42;60.43;102438.25;6205943;28;20221;-57
2021/03/05 04:54:07;;;;;;;7.17;3.77;;;;;;;1.49;59.69;102438.69;6204837;28;20316;-56
2021/03/05 04:57:27;;;;;;;6.90;2.83;;;;;;;1.50;60.08;102445.56;6192970;28;20233;-56
2021/03/05 05:00:47;;;;;;;5.87;3.50;;;;;;;1.52;59.57;102450.78;6210241;28;20323;-57
2021/03/05 05:04:09;;;;;;;7.50;4.07;;;;;;;1.41;60.13;102467.28;6202237;28;20221;-58
2021/03/05 05:07:29;;;;;;;2.93;1.90;;;;;;;1.25;60.76;102476.72;6195310;28;20248;-56
2021/03/05 05:10:50;;;;;;;4.10;2.10;;;;;;;1.45;59.99;102487.19;6190312;28;20222;-58
2021/03/05 05:14:10;;;;;;;6.20;2.53;;;;;;;1.34;60.11;102489.19;6199884;28;20567;-55
2021/03/05 05:17:31;;;;;;;6.23;2.33;;;;;;;1.37;59.44;102486.75;6208486;28;20498;-55
2021/03/05 05:20:52;;;;;;;3.47;2.10;;;;;;;1.26;60.05;102487.84;6208323;28;20230;-57
2021/03/05 05:24:13;;;;;;;6.90;3.10;;;;;;;1.34;59.61;102492.63;6202189;28;20238;-57
2021/03/05 05:27:34;;;;;;;4.73;2.33;;;;;;;1.29;59.81;102494.03;6208584;28;20233;-57
2021/03/05 05:30:55;;;;;;;7.23;3.17;;;;;;;1.18;60.17;102502.81;6205977;28;20233;-55
2021/03/05 05:34:15;;;;;;;6.67;2.60;;;;;;;1.22;60.26;102520.16;6204580;28;20612;-58
2021/03/05 05:37:36;;;;;;;4.67;2.77;;;;;;;1.08;60.71;102508.25;6190772;28;20660;-56
2021/03/05 05:40:59;;;;;;;4.57;2.27;;;;;;;1.20;60.54;102516.63;6205341;28;20268;-56
2021/03/05 05:44:19;;;;;;;4.23;2.50;;;;;;;1.14;60.48;102516.28;6196249;28;20234;-58
2021/03/05 05:47:40;;;;;;;3.83;2.33;;;;;;;1.13;60.13;102517.09;6196494;28;20233;-58
2021/03/05 05:51:02;;;;;;;9.70;3.10;;;;;;;1.04;60.12;102516.56;6217354;28;20889;-58
2021/03/05 05:54:24;;;;;;;4.00;2.60;;;;;;;1.04;60.43;102516.56;6203967;28;20233;-56
2021/03/05 05:57:46;;;;;;;7.57;3.43;;;;;;;1.08;60.61;102515.94;6202861;28;20603;-57
2021/03/05 06:01:07;;;;;;;4.80;2.53;;;;;;;1.07;60.48;102521.88;6194078;28;20225;-57
2021/03/05 06:04:28;;;;;;;7.80;3.40;;;;;;;1.05;60.81;102526.91;6210372;28;20222;-58
2021/03/05 06:07:49;;;;;;;5.43;2.80;;;;;;;1.08;60.63;102531.34;6209104;28;20229;-57
2021/03/05 06:11:10;;;;;;;6.53;2.30;;;;;;;1.28;59.91;102528.22;6205109;28;20233;-58
2021/03/05 06:14:31;;;;;;;4.20;2.50;;;;;;;1.29;59.48;102529.97;6216881;28;20428;-55
2021/03/05 06:17:51;;;;;;;6.90;3.27;;;;;;;1.13;59.94;102529.91;6214500;28;20245;-56
2021/03/05 06:21:13;;;;;;;5.00;3.03;;;;;;;1.12;60.19;102536.72;6214692;28;20237;-58
2021/03/05 06:24:43;;;;;;;6.67;2.50;;;;;;;1.26;59.66;102541.75;6217391;28;20278;-57
2021/03/05 06:28:13;;;;;;;4.57;3.00;;;;;;;1.31;59.86;102538.66;6200412;28;20249;-58
2021/03/05 06:31:34;;;;;;;3.67;2.80;;;;;;;1.26;59.88;102546.88;6182127;28;20233;-56
2021/03/05 06:34:55;;;;;;;6.13;2.80;;;;;;;1.45;59.91;102552.25;6193536;28;20213;-58
2021/03/05 06:38:39;;;;;;;4.83;3.00;;;;;;;1.43;59.37;102558.97;6190731;28;20241;-55
2021/03/05 06:42:02;;;;;;;5.57;2.70;;;;;;;1.42;58.99;102558.94;6178365;28;20229;-54
2021/03/05 06:45:25;;;;;;;7.60;2.43;;;;;;;1.44;59.40;102567.59;6202225;28;21924;-56
2021/03/05 06:48:51;;;;;;;2.90;2.40;;;;;;;1.53;58.96;102560.38;6195982;28;20257;-56
2021/03/05 06:52:13;;;;;;;4.93;2.93;;;;;;;1.61;58.87;102563.38;6181651;28;20226;-53
2021/03/05 06:55:38;;;;;;;9.23;3.77;;;;;;;1.58;58.70;102564.97;6186928;28;20237;-54
2021/03/05 06:59:01;;;;;;;12.90;6.07;;;;;;;1.69;58.37;102573.28;6203137;28;20228;-57
2021/03/05 07:02:31;;;;;;;8.43;3.73;;;;;;;1.59;58.91;102576.16;6192206;28;20242;-55
2021/03/05 07:05:53;;;;;;;5.43;2.60;;;;;;;1.64;59.17;102568.69;6211611;28;20581;-58
2021/03/05 07:09:26;;;;;;;7.77;3.97;;;;;;;1.94;57.78;102579.78;6217776;28;20234;-60
2021/03/05 07:13:00;;;;;;;5.50;3.00;;;;;;;1.78;58.03;102598.59;6201566;28;21736;-58
2021/03/05 07:16:21;;;;;;;5.00;3.10;;;;;;;1.88;57.65;102597.41;6198586;28;20274;-59
2021/03/05 07:19:42;;;;;;;6.17;3.33;;;;;;;2.29;56.57;102601.38;6186891;28;20226;-55
2021/03/05 07:23:03;;;;;;;4.83;3.60;;;;;;;2.38;56.30;102606.97;6203993;28;20233;-58
2021/03/05 07:26:25;;;;;;;6.67;3.37;;;;;;;2.43;56.48;102605.53;6189073;28;20738;-57
2021/03/05 07:29:45;;;;;;;3.83;2.83;;;;;;;2.53;56.67;102617.19;6214456;28;20397;-55
2021/03/05 07:33:11;;;;;;;5.93;2.83;;;;;;;2.70;58.34;102610.38;6195620;28;20557;-57
2021/03/05 07:36:36;;;;;;;8.67;3.17;;;;;;;3.15;62.54;102618.66;6186565;28;20228;-54
2021/03/05 07:40:00;;;;;;;5.33;3.03;;;;;;;3.22;58.52;102619.81;6212109;28;20623;-57
2021/03/05 07:43:20;;;;;;;4.50;2.87;;;;;;;3.15;54.05;102624.69;6190334;28;20304;-59
2021/03/05 07:46:41;;;;;;;7.80;5.10;;;;;;;3.04;54.45;102624.94;6177116;28;20319;-54
2021/03/05 07:50:04;;;;;;;3.60;2.60;;;;;;;3.09;54.44;102628.66;6180382;28;20572;-56
2021/03/05 07:53:25;;;;;;;4.77;2.73;;;;;;;3.03;54.24;102628.34;6194623;28;20238;-57
2021/03/05 07:56:49;;;;;;;5.73;2.60;;;;;;;3.07;54.92;102638.00;6182324;28;20238;-55
2021/03/05 08:00:10;;;;;;;5.97;3.87;;;;;;;3.13;54.32;102644.31;6200747;28;20229;-56
2021/03/05 08:03:53;;;;;;;6.67;3.60;;;;;;;3.25;54.05;102651.78;6180822;28;20719;-57
2021/03/05 08:07:13;;;;;;;6.53;2.57;;;;;;;3.29;53.09;102652.81;6202140;28;20229;-58
2021/03/05 08:10:39;;;;;;;3.17;2.87;;;;;;;3.48;53.08;102655.50;6190570;28;20222;-59
2021/03/05 08:14:24;;;;;;;9.67;2.70;;;;;;;3.40;52.78;102655.94;6195717;28;20583;-56
2021/03/05 08:17:46;;;;;;;5.47;3.00;;;;;;;3.51;53.21;102665.09;6186468;28;20647;-59
2021/03/05 08:21:06;;;;;;;5.07;2.73;;;;;;;3.46;53.41;102676.84;6172298;28;20249;-58
2021/03/05 08:24:29;;;;;;;4.70;3.10;;;;;;;3.69;51.74;102676.28;6207788;28;20229;-57
2021/03/05 08:27:51;;;;;;;6.33;2.50;;;;;;;3.90;52.77;102673.88;6196946;28;20225;-58
2021/03/05 08:31:36;;;;;;;3.23;2.33;;;;;;;4.01;50.86;102682.09;6193478;28;20238;-55
2021/03/05 08:34:57;;;;;;;3.33;2.50;;;;;;;3.63;51.63;102685.41;6183201;28;20316;-56
2021/03/05 08:38:31;;;;;;;8.30;4.40;;;;;;;4.01;51.28;102696.69;6189606;28;20735;-54
2021/03/05 08:42:24;;;;;;;2.83;2.63;;;;;;;4.05;51.00;102694.34;6201658;28;20308;-54
2021/03/05 08:45:48;;;;;;;5.20;2.73;;;;;;;4.29;50.25;102692.03;6204208;28;20522;-55
2021/03/05 08:49:10;;;;;;;6.37;2.60;;;;;;;3.87;50.02;102696.91;6194261;28;20222;-57
2021/03/05 08:52:30;;;;;;;6.13;2.83;;;;;;;3.76;51.42;102703.22;6189147;28;20596;-55
2021/03/05 08:55:53;;;;;;;4.43;2.90;;;;;;;4.08;49.82;102699.63;6182644;28;20244;-51
2021/03/05 08:59:14;;;;;;;8.37;2.17;;;;;;;4.29;48.49;102698.88;6185505;28;20233;-52
2021/03/05 09:02:36;;;;;;;5.13;2.50;;;;;;;4.49;48.92;102705.84;6204298;28;20536;-54
2021/03/05 09:05:56;;;;;;;6.73;3.27;;;;;;;4.84;47.40;102709.13;6188471;28;20897;-54
2021/03/05 09:09:19;;;;;;;3.23;2.17;;;;;;;4.57;47.17;102713.06;6190649;28;20229;-57
2021/03/05 09:12:53;;;;;;;3.07;2.47;;;;;;;4.66;46.73;102718.66;6206967;28;20232;-59
2021/03/05 09:16:14;;;;;;;4.07;2.33;;;;;;;4.77;46.05;102716.53;6209929;28;20709;-58
2021/03/05 09:19:37;;;;;;;5.20;2.53;;;;;;;5.01;46.34;102716.75;6191928;28;20614;-57
2021/03/05 09:22:58;;;;;;;7.47;2.30;;;;;;;5.37;45.18;102714.91;6209100;28;20682;-56
2021/03/05 09:26:18;;;;;;;5.43;3.43;;;;;;;5.36;45.02;102714.84;6208491;28;20844;-58
2021/03/05 09:29:39;;;;;;;3.47;2.10;;;;;;;5.48;43.59;102728.25;6206291;28;20234;-59
2021/03/05 09:32:59;;;;;;;6.63;1.97;;;;;;;6.00;43.38;102727.00;6192747;28;20241;-54
2021/03/05 09:36:22;;;;;;;2.57;1.83;;;;;;;5.87;41.63;102730.72;6194359;28;20637;-50
2021/03/05 09:39:43;;;;;;;3.57;2.00;;;;;;;6.10;40.92;102734.28;6214293;28;20245;-55
2021/03/05 09:43:04;;;;;;;4.73;1.50;;;;;;;6.90;42.86;102722.69;6184347;28;20233;-55
2021/03/05 09:46:26;;;;;;;2.23;1.80;;;;;;;7.34;47.37;102734.59;6183915;28;20325;-54
2021/03/05 09:49:47;;;;;;;1.50;1.30;;;;;;;7.81;42.11;102743.09;6216759;28;20768;-59
2021/03/05 09:53:27;;;;;;;2.57;1.87;;;;;;;8.16;36.76;102736.47;6205028;28;20237;-54
2021/03/05 09:56:49;;;;;;;2.37;1.27;;;;;;;7.65;35.03;102739.97;6180167;28;20262;-55
2021/03/05 10:00:10;;;;;;;3.10;1.70;;;;;;;7.46;35.75;102750.56;6209006;28;20237;-55
2021/03/05 10:03:32;;;;;;;5.80;2.80;;;;;;;8.69;33.20;102738.09;6193490;28;20237;-57
2021/03/05 10:06:54;;;;;;;3.37;1.37;;;;;;;8.46;31.87;102743.47;6207860;28;20237;-56
2021/03/05 10:10:16;;;;;;;2.70;1.27;;;;;;;10.18;28.95;102752.41;6218786;28;20323;-57
2021/03/05 10:13:47;;;;;;;2.50;1.90;;;;;;;14.55;23.44;102743.91;6194150;28;20241;-56
2021/03/05 10:17:10;;;;;;;3.20;2.17;;;;;;;18.31;19.71;102732.41;6209449;28;20225;-58
2021/03/05 10:20:31;;;;;;;2.17;1.53;;;;;;;20.14;17.02;102735.03;6198005;28;20510;-56
2021/03/05 10:23:51;;;;;;;3.83;1.50;;;;;;;22.69;14.70;102733.38;6192642;28;20256;-59
2021/03/05 10:27:16;;;;;;;2.03;1.10;;;;;;;22.21;14.03;102745.31;6188447;28;20221;-58
2021/03/05 10:30:37;;;;;;;3.10;0.95;;;;;;;22.27;13.83;102759.38;6187064;28;20238;-59
2021/03/05 10:33:58;;;;;;;0.88;0.77;;;;;;;21.53;13.44;102753.28;6172567;28;20241;-57
2021/03/05 10:37:18;;;;;;;2.53;1.40;;;;;;;22.70;12.97;102760.78;6196416;28;20242;-55
2021/03/05 10:44:17;;;;;;;1.27;0.85;;;;;;;25.83;11.04;102763.88;6133441;23;20623;-58
2021/03/05 10:47:38;;;;;;;1.67;0.90;;;;;;;25.08;10.29;102758.00;6067336;29;20236;-56
2021/03/05 10:50:59;;;;;;;2.50;0.82;;;;;;;24.22;10.45;102760.38;6067773;29;20229;-58
2021/03/05 10:54:20;;;;;;;1.63;1.33;;;;;;;24.45;10.77;102764.84;6061771;29;20224;-58
2021/03/05 10:57:41;;;;;;;1.13;0.88;;;;;;;25.79;9.71;102772.94;6064142;29;20245;-59
2021/03/05 11:01:03;;;;;;;2.17;1.13;;;;;;;25.76;9.55;102767.72;6069740;29;20339;-61
2021/03/05 11:04:24;;;;;;;1.42;0.75;;;;;;;27.44;8.45;102760.97;6067653;29;20240;-58
2021/03/05 11:07:44;;;;;;;1.15;1.05;;;;;;;27.94;8.63;102760.22;6067689;29;20250;-56
2021/03/05 11:11:05;;;;;;;2.25;0.85;;;;;;;28.51;8.13;102759.00;6057686;29;20248;-56
2021/03/05 11:14:27;;;;;;;1.02;0.93;;;;;;;26.27;9.64;102763.75;6064579;29;20607;-56
2021/03/05 11:17:48;;;;;;;1.10;0.55;;;;;;;25.82;10.19;102770.97;6067786;29;20241;-58
2021/03/05 11:21:09;;;;;;;2.15;0.93;;;;;;;29.33;9.53;102760.69;6066963;29;20260;-70
2021/03/05 11:24:29;;;;;;;2.15;0.80;;;;;;;27.65;9.72;102756.34;6075011;29;20225;-58
2021/03/05 11:27:49;;;;;;;3.30;0.88;;;;;;;26.87;9.10;102756.53;6069417;29;20249;-60
2021/03/05 11:31:10;;;;;;;2.15;1.30;;;;;;;26.40;9.61;102759.56;6063396;29;21065;-60
2021/03/05 11:34:31;;;;;;;3.05;1.10;;;;;;;28.21;9.08;102754.34;6075009;29;20237;-58
2021/03/05 11:37:51;;;;;;;3.10;0.77;;;;;;;29.36;8.40;102747.97;6060070;29;20233;-60
2021/03/05 11:41:13;;;;;;;3.00;0.93;;;;;;;27.18;8.81;102752.38;6064820;29;20519;-60
2021/03/05 11:44:33;;;;;;;2.15;1.10;;;;;;;28.11;8.49;102755.78;6054974;29;20233;-61
2021/03/05 11:47:54;;;;;;;2.92;1.48;;;;;;;26.68;9.45;102759.22;6068293;29;20256;-63
2021/03/05 11:51:16;;;;;;;1.92;0.80;;;;;;;27.54;9.24;102751.50;6064772;29;20225;-60
2021/03/05 11:54:36;;;;;;;2.13;1.23;;;;;;;29.46;8.25;102748.28;6069271;29;20476;-59
2021/03/05 11:57:58;;;;;;;1.10;1.00;;;;;;;29.47;7.92;102752.72;6065248;29;20240;-59
2021/03/05 12:01:18;;;;;;;1.02;0.93;;;;;;;27.09;9.03;102758.19;6049359;29;20583;-59
2021/03/05 12:04:39;;;;;;;1.00;0.63;;;;;;;27.04;9.08;102752.19;6058754;29;20639;-60
2021/03/05 12:08:00;;;;;;;1.45;0.70;;;;;;;27.66;9.00;102760.72;6061815;29;20555;-58
2021/03/05 12:11:21;;;;;;;2.20;1.40;;;;;;;26.36;10.12;102762.47;6066013;29;20237;-58
2021/03/05 12:14:41;;;;;;;1.10;0.60;;;;;;;28.44;8.09;102748.63;6066373;29;21979;-57
2021/03/05 12:18:01;;;;;;;2.78;1.05;;;;;;;29.97;7.89;102751.53;6068021;29;20225;-58
2021/03/05 12:21:22;;;;;;;2.10;1.23;;;;;;;26.77;8.90;102739.19;6062954;29;20237;-60
2021/03/05 12:24:43;;;;;;;2.13;0.80;;;;;;;26.68;10.18;102747.66;6062196;29;21681;-60
2021/03/05 12:28:04;;;;;;;1.17;0.85;;;;;;;27.68;9.62;102751.69;6058053;29;20584;-61
2021/03/05 12:31:25;;;;;;;2.67;1.00;;;;;;;28.46;9.65;102749.41;6067584;29;20608;-61
2021/03/05 12:34:46;;;;;;;1.85;0.82;;;;;;;28.13;10.02;102741.38;6068802;29;20240;-61
2021/03/05 12:38:06;;;;;;;1.65;1.02;;;;;;;28.60;8.94;102745.13;6067524;29;20236;-61
2021/03/05 12:41:28;;;;;;;1.63;0.85;;;;;;;27.00;10.09;102748.78;6074697;29;20237;-60
2021/03/05 12:44:48;;;;;;;1.92;1.15;;;;;;;26.32;10.33;102749.22;6066062;29;20229;-57
2021/03/05 12:48:10;;;;;;;1.95;0.90;;;;;;;26.14;9.40;102747.41;6067430;29;20515;-56
2021/03/05 12:51:30;;;;;;;2.78;0.90;;;;;;;26.41;9.47;102750.63;6067122;29;20647;-58
2021/03/05 12:54:51;;;;;;;2.60;0.98;;;;;;;27.33;9.33;102745.44;6055840;29;20598;-59
2021/03/05 12:58:12;;;;;;;1.77;1.23;;;;;;;27.94;8.23;102743.28;6063012;29;20236;-57
2021/03/05 13:01:32;;;;;;;1.20;1.08;;;;;;;25.47;9.84;102752.00;6059051;29;20233;-55
2021/03/05 13:04:52;;;;;;;1.45;1.27;;;;;;;25.12;10.54;102745.41;6048107;29;20233;-60
2021/03/05 13:08:13;;;;;;;1.15;0.88;;;;;;;24.34;11.67;102746.59;6067004;29;20272;-55
2021/03/05 13:11:34;;;;;;;0.98;0.98;;;;;;;24.85;10.54;102748.22;6063599;29;20487;-56
2021/03/05 13:14:55;;;;;;;2.47;1.35;;;;;;;24.13;11.59;102741.13;6065086;29;20237;-55
2021/03/05 13:18:16;;;;;;;1.40;1.15;;;;;;;23.90;11.39;102754.38;6066669;29;20237;-60
2021/03/05 13:21:37;;;;;;;14.80;13.35;;;;;;;23.42;10.51;102747.97;6059419;29;20255;-58
2021/03/05 13:24:57;;;;;;;10.48;9.40;;;;;;;22.61;12.32;102753.97;6048768;29;20237;-56
2021/03/05 13:28:18;;;;;;;13.65;11.98;;;;;;;20.83;14.19;102746.91;6061693;29;20249;-59
2021/03/05 13:31:39;;;;;;;5.05;4.28;;;;;;;21.06;13.06;102747.31;6043886;29;20298;-58
2021/03/05 13:35:00;;;;;;;6.07;4.32;;;;;;;20.55;13.51;102757.16;6055871;29;20248;-57
2021/03/05 13:38:20;;;;;;;2.50;1.98;;;;;;;17.65;15.53;102759.38;6062704;29;20241;-58
2021/03/05 13:41:41;;;;;;;4.47;3.10;;;;;;;15.06;19.17;102762.53;6073016;29;20245;-54
2021/03/05 13:45:02;;;;;;;4.18;3.40;;;;;;;18.93;16.10;102756.31;6068857;29;20229;-58
2021/03/05 13:48:23;;;;;;;13.50;9.00;;;;;;;21.88;12.75;102759.50;6074707;29;20259;-59
2021/03/05 13:51:44;;;;;;;1.55;0.90;;;;;;;19.88;13.64;102753.16;6068537;29;20245;-58
2021/03/05 13:55:05;;;;;;;4.35;2.58;;;;;;;18.88;14.85;102763.41;6073538;29;20230;-56
2021/03/05 13:58:26;;;;;;;3.42;3.13;;;;;;;19.92;13.94;102754.84;6067242;29;20644;-55
2021/03/05 14:01:46;;;;;;;2.30;1.93;;;;;;;18.47;15.10;102754.19;6072992;29;20684;-59
2021/03/05 14:05:09;;;;;;;2.38;0.98;;;;;;;17.46;14.64;102751.59;6073429;29;20245;-59
2021/03/05 14:08:30;;;;;;;2.30;1.57;;;;;;;19.01;14.14;102743.88;6071519;29;20303;-58
2021/03/05 14:11:50;;;;;;;2.47;1.67;;;;;;;19.07;13.97;102751.69;6075734;29;20553;-60
2021/03/05 14:15:12;;;;;;;4.00;3.70;;;;;;;20.33;13.38;102745.25;6069551;29;20321;-58
2021/03/05 14:18:32;;;;;;;4.03;3.63;;;;;;;21.61;12.53;102740.72;6065129;29;20229;-60
2021/03/05 14:21:54;;;;;;;7.82;5.93;;;;;;;20.82;13.37;102738.97;6050759;29;20241;-57
2021/03/05 14:25:15;;;;;;;14.90;9.50;;;;;;;20.80;13.07;102740.78;6082094;29;20735;-60
2021/03/05 14:28:35;;;;;;;2.53;2.28;;;;;;;19.47;14.35;102745.84;6064472;29;20237;-61
2021/03/05 14:31:55;;;;;;;7.33;6.63;;;;;;;20.68;13.90;102754.28;6063660;29;20237;-59
2021/03/05 14:35:16;;;;;;;9.85;6.55;;;;;;;20.16;14.19;102742.94;6073266;29;20232;-57
2021/03/05 14:38:38;;;;;;;1.33;1.10;;;;;;;16.49;17.02;102756.44;6072327;29;20332;-58
2021/03/05 14:41:58;;;;;;;2.13;1.20;;;;;;;15.34;19.63;102759.97;6065012;29;20244;-58
2021/03/05 14:45:21;;;;;;;7.70;3.27;;;;;;;15.29;19.63;102753.81;6070196;29;20265;-55
2021/03/05 14:48:41;;;;;;;3.93;3.23;;;;;;;13.48;21.02;102762.34;6059640;29;20611;-59
2021/03/05 14:52:02;;;;;;;2.67;1.60;;;;;;;13.37;22.61;102763.97;6069618;29;20332;-61
2021/03/05 14:55:23;;;;;;;5.73;5.20;;;;;;;15.47;20.08;102773.97;6060214;29;20229;-59
2021/03/05 14:58:44;;;;;;;4.33;1.43;;;;;;;13.37;21.51;102769.19;6071573;29;20237;-58
2021/03/05 15:02:05;;;;;;;9.67;7.30;;;;;;;13.05;23.19;102772.31;6059607;29;20229;-61
2021/03/05 15:05:29;;;;;;;5.47;3.20;;;;;;;14.70;20.69;102779.84;6075565;29;20461;-57
2021/03/05 15:08:49;;;;;;;11.80;9.17;;;;;;;15.27;19.64;102779.19;6070517;29;20221;-59
2021/03/05 15:12:12;;;;;;;1.60;1.50;;;;;;;16.31;21.46;102767.88;6071735;29;22277;-58
2021/03/05 15:15:32;;;;;;;2.73;1.30;;;;;;;16.20;20.62;102774.91;6057265;29;20498;-61
2021/03/05 15:18:53;;;;;;;1.27;0.90;;;;;;;14.44;22.14;102774.41;6060016;29;20233;-58
2021/03/05 15:22:13;;;;;;;2.17;1.07;;;;;;;14.84;23.53;102781.66;6060227;29;20244;-56
2021/03/05 15:25:34;;;;;;;1.40;1.20;;;;;;;14.48;22.98;102783.19;6061873;29;20241;-61
2021/03/05 15:28:55;;;;;;;6.10;1.87;;;;;;;14.28;23.37;102789.19;6066560;29;20623;-57
2021/03/05 15:32:15;;;;;;;4.27;1.20;;;;;;;13.35;24.06;102781.38;6067942;29;20240;-59
2021/03/05 15:35:36;;;;;;;2.90;1.27;;;;;;;13.76;23.56;102791.38;6056706;29;20240;-58
2021/03/05 15:38:56;;;;;;;1.77;1.23;;;;;;;13.23;23.71;102796.94;6063871;29;20612;-63
2021/03/05 15:42:17;;;;;;;2.17;1.60;;;;;;;13.34;24.16;102803.19;6051782;29;20242;-56
2021/03/05 15:45:38;;;;;;;10.13;6.97;;;;;;;12.66;25.83;102811.88;6065460;29;20897;-57
2021/03/05 15:48:58;;;;;;;7.63;4.53;;;;;;;12.57;24.52;102815.25;6061162;29;20500;-57
2021/03/05 15:52:19;;;;;;;2.50;2.30;;;;;;;11.60;26.29;102811.88;6058924;29;20237;-58
2021/03/05 15:55:40;;;;;;;5.23;2.70;;;;;;;10.86;28.15;102824.28;6063780;29;20272;-59
2021/03/05 15:59:01;;;;;;;3.40;1.43;;;;;;;11.02;27.44;102831.59;6061024;29;20327;-58
2021/03/05 16:02:23;;;;;;;2.53;1.13;;;;;;;10.51;27.88;102827.00;6050810;29;20257;-60
2021/03/05 16:05:43;;;;;;;2.57;1.50;;;;;;;9.78;28.65;102826.91;6061308;29;20241;-56
2021/03/05 16:09:04;;;;;;;2.30;1.33;;;;;;;10.17;29.76;102827.03;6059690;29;20237;-58
2021/03/05 16:12:25;;;;;;;7.33;4.83;;;;;;;10.32;29.01;102833.50;6059964;29;20237;-56
2021/03/05 16:15:45;;;;;;;4.53;3.10;;;;;;;9.97;29.47;102834.34;6056252;29;20315;-58